Time;durP1;ratioP1;P1;durP2;ratioP2;P2;SDS_P1;SDS_P2;PMS_P1;PMS_P2;Temp;Humidity;BMP_temperature;BMP_pressure;BME280_temperature;BME280_humidity;BME280_pressure;Samples;Min_cycle;Max_cycle;Signal;HPM_P1;HPM_P2
2022/11/23 00:02:10;;;;;;;16.58;14.88;;;3.90;99.90;;;;;;4993473;28;20258;-94
2022/11/23 00:04:54;;;;;;;30.05;17.42;;;3.90;99.90;;;;;;4992774;28;20204;-92
2022/11/23 00:07:24;;;;;;;18.77;16.75;;;3.90;99.90;;;;;;4991814;28;20290;-93
2022/11/23 00:09:56;;;;;;;21.35;17.73;;;3.80;99.90;;;;;;4992324;28;20214;-93
2022/11/23 00:12:32;;;;;;;22.58;16.77;;;3.90;99.90;;;;;;4991452;28;20274;-93
2022/11/23 00:15:13;;;;;;;22.35;17.77;;;3.80;99.90;;;;;;4991663;28;20239;-93
2022/11/23 00:17:50;;;;;;;21.00;15.90;;;3.80;99.90;;;;;;4991303;28;20210;-93
2022/11/23 00:20:24;;;;;;;18.27;16.33;;;3.80;99.90;;;;;;4991053;28;20207;-94
2022/11/23 00:23:00;;;;;;;15.05;13.57;;;3.90;99.90;;;;;;4990970;28;20290;-93
2022/11/23 00:25:33;;;;;;;19.90;15.35;;;3.90;99.90;;;;;;4991130;28;20207;-93
2022/11/23 00:28:12;;;;;;;17.92;16.02;;;3.90;99.90;;;;;;4990750;28;20322;-94
2022/11/23 00:30:50;;;;;;;21.92;17.48;;;3.90;99.90;;;;;;4994804;28;20250;-94
2022/11/23 00:33:29;;;;;;;19.95;16.05;;;3.90;99.90;;;;;;4991250;28;20234;-94
2022/11/23 00:36:05;;;;;;;17.73;15.85;;;3.90;99.90;;;;;;4990664;28;20208;-93
2022/11/23 00:38:38;;;;;;;16.65;14.95;;;3.90;99.90;;;;;;4990246;28;20216;-95
2022/11/23 00:41:13;;;;;;;20.77;16.42;;;3.90;99.90;;;;;;4990098;28;20216;-94
2022/11/23 00:43:45;;;;;;;18.38;16.20;;;3.90;99.90;;;;;;4990199;28;20223;-94
2022/11/23 00:46:19;;;;;;;21.05;16.17;;;3.90;99.90;;;;;;4990891;28;20215;-92
2022/11/23 00:48:56;;;;;;;22.05;16.70;;;3.90;99.90;;;;;;4997041;28;20220;-94
2022/11/23 00:51:29;;;;;;;17.20;13.88;;;3.90;99.90;;;;;;4988999;28;20207;-92
2022/11/23 00:54:04;;;;;;;16.83;15.05;;;3.90;99.90;;;;;;4994134;28;20223;-94
2022/11/23 00:56:49;;;;;;;18.25;15.95;;;3.90;99.90;;;;;;4996317;28;20207;-92
2022/11/23 00:59:38;;;;;;;20.70;16.25;;;3.90;99.90;;;;;;4994228;28;20236;-92
2022/11/23 01:02:20;;;;;;;15.38;13.88;;;4.00;99.90;;;;;;4991087;28;20224;-92
2022/11/23 01:04:53;;;;;;;15.93;14.40;;;3.90;99.90;;;;;;4991048;28;20215;-92
2022/11/23 01:10:11;;;;;;;17.02;14.98;;;4.00;99.90;;;;;;4990356;28;20226;-94
2022/11/23 01:12:45;;;;;;;17.42;14.60;;;4.00;99.90;;;;;;4990983;28;20286;-93
2022/11/23 01:15:27;;;;;;;20.92;15.32;;;4.00;99.90;;;;;;4994431;28;20250;-94
2022/11/23 01:18:02;;;;;;;18.77;15.88;;;4.00;99.90;;;;;;4994189;28;20241;-94
2022/11/23 01:20:48;;;;;;;16.33;14.63;;;4.00;99.90;;;;;;4995193;28;20262;-94
2022/11/23 01:23:27;;;;;;;18.08;15.32;;;4.00;99.90;;;;;;4996799;28;20223;-93
2022/11/23 01:26:00;;;;;;;18.80;15.48;;;4.00;99.90;;;;;;4996911;28;20247;-92
2022/11/23 01:28:40;;;;;;;19.20;16.40;;;4.10;99.90;;;;;;4996172;28;20219;-93
2022/11/23 01:31:19;;;;;;;17.02;14.60;;;4.10;99.90;;;;;;4996708;28;20215;-93
2022/11/23 01:34:04;;;;;;;20.23;15.68;;;4.10;99.90;;;;;;4996307;28;20247;-93
2022/11/23 01:36:41;;;;;;;21.23;16.27;;;4.10;99.90;;;;;;4996103;28;20232;-93
2022/11/23 01:39:18;;;;;;;17.60;15.30;;;4.10;99.90;;;;;;4996118;28;20208;-92
2022/11/23 01:44:44;;;;;;;21.77;17.95;;;4.00;99.90;;;;;;4996188;28;20208;-93
2022/11/23 01:47:40;;;;;;;16.40;14.80;;;4.10;99.90;;;;;;4995862;28;20230;-93
2022/11/23 01:50:27;;;;;;;16.67;15.10;;;4.10;99.90;;;;;;4996291;28;20219;-93
2022/11/23 01:53:02;;;;;;;18.45;16.35;;;4.10;99.90;;;;;;5003944;28;20238;-93
2022/11/23 01:55:34;;;;;;;20.77;17.35;;;4.10;99.90;;;;;;4996122;28;20242;-93
2022/11/23 01:58:17;;;;;;;17.42;15.70;;;4.10;99.90;;;;;;4995679;28;20204;-93
2022/11/23 02:01:03;;;;;;;16.83;15.02;;;4.10;99.90;;;;;;4996331;28;20279;-93
2022/11/23 02:03:56;;;;;;;17.77;15.27;;;4.10;99.90;;;;;;4995640;28;20238;-95
2022/11/23 02:06:47;;;;;;;23.48;15.13;;;4.10;99.90;;;;;;4996297;28;20287;-93
2022/11/23 02:09:38;;;;;;;17.50;15.70;;;4.10;99.90;;;;;;4996132;28;20213;-93
2022/11/23 02:12:15;;;;;;;19.05;16.35;;;4.10;99.90;;;;;;4995748;28;20227;-95
2022/11/23 02:15:05;;;;;;;16.85;15.10;;;4.10;99.90;;;;;;4995992;28;20265;-92
2022/11/23 02:17:41;;;;;;;18.08;16.20;;;4.10;99.90;;;;;;4996002;28;20214;-94
2022/11/23 02:20:31;;;;;;;16.60;14.80;;;4.20;99.90;;;;;;4995341;28;20212;-94
2022/11/23 02:23:19;;;;;;;17.77;15.40;;;4.20;99.90;;;;;;4995759;28;20227;-93
2022/11/23 02:26:19;;;;;;;21.48;17.45;;;4.20;99.90;;;;;;4996022;28;20216;-93
2022/11/23 02:29:01;;;;;;;15.63;14.07;;;4.20;99.90;;;;;;4994714;28;20407;-93
2022/11/23 02:31:42;;;;;;;18.33;15.32;;;4.20;99.90;;;;;;4995720;28;20212;-93
2022/11/23 02:34:24;;;;;;;17.88;16.02;;;4.20;99.90;;;;;;4995658;28;20208;-93
2022/11/23 02:37:08;;;;;;;20.23;16.00;;;4.20;99.90;;;;;;4995779;28;20203;-92
2022/11/23 02:39:52;;;;;;;20.73;15.45;;;4.10;99.90;;;;;;4995751;28;20207;-94
2022/11/23 02:42:40;;;;;;;18.20;14.77;;;4.20;99.90;;;;;;4995586;28;20231;-94
2022/11/23 02:45:33;;;;;;;21.83;15.20;;;4.20;99.90;;;;;;4994998;28;20211;-94
2022/11/23 02:48:11;;;;;;;16.65;14.93;;;4.20;99.90;;;;;;4994743;28;20262;-94
2022/11/23 02:50:54;;;;;;;19.05;14.75;;;4.20;99.90;;;;;;4995373;28;20208;-93
2022/11/23 02:53:43;;;;;;;20.17;16.52;;;4.20;99.90;;;;;;4995130;28;20219;-96
2022/11/23 02:56:40;;;;;;;20.88;16.88;;;4.20;99.90;;;;;;4995511;28;20218;-94
2022/11/23 02:59:35;;;;;;;18.83;16.85;;;4.30;99.90;;;;;;4998746;28;20235;-95
2022/11/23 03:02:21;;;;;;;28.85;16.85;;;4.20;99.90;;;;;;4998775;28;20227;-94
2022/11/23 03:07:53;;;;;;;22.08;18.10;;;4.30;99.90;;;;;;4993954;28;20208;-93
2022/11/23 03:10:21;;;;;;;19.25;17.05;;;4.20;99.90;;;;;;4994545;28;20254;-88
2022/11/23 03:12:50;;;;;;;18.13;16.23;;;4.20;99.90;;;;;;4994076;28;20238;-88
2022/11/23 03:15:19;;;;;;;18.73;15.60;;;4.20;99.90;;;;;;4993872;28;20212;-88
2022/11/23 03:17:48;;;;;;;17.77;15.88;;;4.30;99.90;;;;;;4993767;28;20291;-88
2022/11/23 03:20:16;;;;;;;17.23;15.25;;;4.30;99.90;;;;;;4993701;28;20200;-87
2022/11/23 03:22:46;;;;;;;20.80;17.55;;;4.20;99.90;;;;;;4993679;28;20221;-87
2022/11/23 03:25:15;;;;;;;24.77;16.73;;;4.20;99.90;;;;;;4993195;28;20219;-88
2022/11/23 03:27:43;;;;;;;17.83;15.48;;;4.20;99.90;;;;;;4991305;28;20210;-88
2022/11/23 03:30:12;;;;;;;18.33;16.13;;;4.20;99.90;;;;;;4991980;28;20203;-88
2022/11/23 03:32:42;;;;;;;16.00;14.30;;;4.20;99.90;;;;;;4993702;28;20251;-88
2022/11/23 03:35:10;;;;;;;14.40;12.57;;;4.20;99.90;;;;;;4993770;28;20211;-88
2022/11/23 03:37:38;;;;;;;15.57;13.98;;;4.20;99.90;;;;;;4992813;28;20199;-89
2022/11/23 03:40:08;;;;;;;16.02;14.43;;;4.20;99.90;;;;;;4994095;28;20207;-87
2022/11/23 03:42:39;;;;;;;17.15;14.32;;;4.10;99.90;;;;;;4993935;28;20239;-88
2022/11/23 03:45:09;;;;;;;15.25;13.65;;;4.10;99.90;;;;;;4994243;28;20219;-88
2022/11/23 03:47:37;;;;;;;18.27;14.88;;;4.20;99.90;;;;;;4994114;28;20298;-88
2022/11/23 03:50:08;;;;;;;18.23;14.55;;;4.10;99.90;;;;;;4993863;28;20223;-88
2022/11/23 03:52:42;;;;;;;13.30;11.95;;;4.10;99.90;;;;;;4993985;28;20235;-88
2022/11/23 03:55:11;;;;;;;13.20;11.98;;;4.10;99.90;;;;;;4993627;28;20206;-88
2022/11/23 03:57:39;;;;;;;14.32;12.68;;;4.10;99.90;;;;;;4993284;28;20207;-88
2022/11/23 04:00:08;;;;;;;17.02;12.80;;;4.10;99.90;;;;;;4993215;28;20207;-88
2022/11/23 04:02:37;;;;;;;12.80;11.55;;;4.10;99.90;;;;;;4993397;28;20232;-88
2022/11/23 04:05:07;;;;;;;14.57;13.07;;;4.00;99.90;;;;;;4993014;28;20214;-88
2022/11/23 04:07:36;;;;;;;15.15;11.98;;;4.00;99.90;;;;;;4992608;28;20208;-89
2022/11/23 04:10:05;;;;;;;18.42;13.18;;;4.00;99.90;;;;;;4993224;28;20228;-89
2022/11/23 04:12:33;;;;;;;11.25;10.15;;;4.00;99.90;;;;;;4993107;28;20295;-88
2022/11/23 04:15:02;;;;;;;13.98;11.85;;;4.00;99.90;;;;;;4992850;28;20204;-88
2022/11/23 04:17:30;;;;;;;13.40;11.35;;;4.10;99.90;;;;;;4992785;28;20203;-89
2022/11/23 04:19:58;;;;;;;17.75;13.15;;;4.00;99.90;;;;;;4993199;28;20200;-89
2022/11/23 04:22:28;;;;;;;12.98;11.68;;;4.00;99.90;;;;;;4993088;28;20228;-89
2022/11/23 04:24:56;;;;;;;17.98;13.93;;;4.00;99.90;;;;;;4992419;28;20196;-89
2022/11/23 04:27:24;;;;;;;16.63;13.27;;;4.00;99.90;;;;;;4993146;28;20216;-88
2022/11/23 04:29:53;;;;;;;23.77;13.75;;;4.00;99.90;;;;;;4993060;28;20228;-88
2022/11/23 04:32:21;;;;;;;14.30;12.77;;;4.00;99.90;;;;;;4993070;28;20232;-89
2022/11/23 04:34:49;;;;;;;21.05;12.85;;;4.00;99.90;;;;;;4992292;28;20207;-88
2022/11/23 04:37:17;;;;;;;18.38;13.65;;;4.00;99.90;;;;;;4992352;28;20283;-88
2022/11/23 04:39:47;;;;;;;15.18;13.43;;;4.10;99.90;;;;;;4992243;28;20211;-87
2022/11/23 04:42:15;;;;;;;18.23;15.18;;;4.10;99.90;;;;;;4992245;28;20228;-87
2022/11/23 04:44:44;;;;;;;16.02;14.13;;;4.10;99.90;;;;;;4991893;28;20215;-88
2022/11/23 04:47:12;;;;;;;17.27;15.23;;;4.10;99.90;;;;;;4990506;28;20211;-87
2022/11/23 04:49:40;;;;;;;17.73;15.82;;;4.10;99.90;;;;;;4994716;28;20311;-87
2022/11/23 04:52:09;;;;;;;18.20;16.23;;;4.10;99.90;;;;;;4996174;28;20230;-87
2022/11/23 04:54:37;;;;;;;18.45;16.20;;;4.10;99.90;;;;;;4996053;28;20263;-86
2022/11/23 04:57:07;;;;;;;20.95;15.60;;;4.10;99.90;;;;;;4995752;28;20214;-87
2022/11/23 04:59:36;;;;;;;22.77;15.80;;;4.10;99.90;;;;;;4995606;28;20202;-87
2022/11/23 05:02:04;;;;;;;15.95;14.27;;;4.10;99.90;;;;;;4995587;28;20212;-87
2022/11/23 05:04:33;;;;;;;16.02;14.15;;;4.10;99.90;;;;;;4996287;28;20208;-87
2022/11/23 05:07:01;;;;;;;15.98;14.32;;;4.10;99.90;;;;;;4995238;28;20203;-87
2022/11/23 05:09:30;;;;;;;16.95;15.10;;;4.10;99.90;;;;;;4995060;28;20227;-89
2022/11/23 05:11:59;;;;;;;15.52;14.02;;;4.10;99.90;;;;;;4995212;28;20273;-88
2022/11/23 05:14:28;;;;;;;14.48;12.98;;;4.10;99.90;;;;;;4995518;28;20230;-87
2022/11/23 05:16:56;;;;;;;20.50;14.85;;;4.10;99.90;;;;;;4995454;28;20219;-88
2022/11/23 05:19:25;;;;;;;18.83;15.38;;;4.10;99.90;;;;;;4995547;28;20259;-87
2022/11/23 05:21:53;;;;;;;20.33;14.25;;;4.10;99.90;;;;;;4995753;28;20230;-88
2022/11/23 05:24:21;;;;;;;14.80;13.25;;;4.10;99.90;;;;;;4995698;28;20211;-88
2022/11/23 05:26:49;;;;;;;14.02;12.68;;;4.10;99.90;;;;;;5000112;28;20214;-88
2022/11/23 05:29:23;;;;;;;13.05;11.75;;;4.10;99.90;;;;;;4996046;28;20224;-88
2022/11/23 05:31:52;;;;;;;12.93;11.43;;;4.00;99.90;;;;;;5007187;28;20203;-87
2022/11/23 05:34:21;;;;;;;12.27;10.98;;;4.00;99.90;;;;;;5015402;28;20214;-87
2022/11/23 05:36:49;;;;;;;10.88;9.88;;;4.00;99.90;;;;;;5015080;28;20214;-89
2022/11/23 05:39:17;;;;;;;12.05;10.75;;;3.90;99.90;;;;;;5015404;28;20203;-88
2022/11/23 05:41:46;;;;;;;9.77;8.88;;;3.90;99.90;;;;;;5010853;28;20207;-88
2022/11/23 05:44:14;;;;;;;10.00;9.07;;;4.00;99.90;;;;;;4995933;28;20215;-88
2022/11/23 05:46:42;;;;;;;9.95;8.98;;;3.90;99.90;;;;;;4995369;28;20208;-88
2022/11/23 05:49:12;;;;;;;11.52;9.90;;;3.90;99.90;;;;;;4995445;28;20214;-89
2022/11/23 05:51:41;;;;;;;9.52;8.52;;;3.90;99.90;;;;;;4995756;28;20207;-89
2022/11/23 05:54:09;;;;;;;8.63;7.82;;;3.90;99.90;;;;;;4995460;28;20234;-88
2022/11/23 05:56:37;;;;;;;9.30;8.50;;;3.80;99.90;;;;;;4995638;28;20219;-89
2022/11/23 05:59:07;;;;;;;8.55;7.68;;;3.80;99.90;;;;;;4996252;28;20306;-88
2022/11/23 06:01:36;;;;;;;8.98;8.07;;;3.80;99.90;;;;;;5002712;28;20206;-87
2022/11/23 06:04:05;;;;;;;8.65;6.80;;;3.70;99.90;;;;;;4999735;28;20220;-89
2022/11/23 06:06:35;;;;;;;7.25;6.53;;;3.70;99.90;;;;;;4994919;28;20214;-89
2022/11/23 06:09:04;;;;;;;7.78;7.03;;;3.60;99.90;;;;;;4995222;28;20208;-89
2022/11/23 06:11:43;;;;;;;9.45;6.53;;;3.60;99.90;;;;;;4995309;28;20224;-96
2022/11/23 06:14:25;;;;;;;13.85;6.40;;;3.60;99.90;;;;;;4995873;28;20270;-91
2022/11/23 06:16:54;;;;;;;6.55;5.95;;;3.60;99.90;;;;;;4982107;28;20202;-93
2022/11/23 06:19:40;;;;;;;6.07;5.55;;;3.60;99.90;;;;;;4995749;28;20203;-93
2022/11/23 06:22:25;;;;;;;6.53;5.90;;;3.70;99.90;;;;;;4994800;28;20224;-93
2022/11/23 06:25:04;;;;;;;5.80;5.30;;;3.60;99.90;;;;;;4995327;28;20302;-92
2022/11/23 06:27:39;;;;;;;5.20;4.80;;;3.60;99.90;;;;;;4994286;28;20266;-92
2022/11/23 06:30:18;;;;;;;6.20;5.60;;;3.50;99.90;;;;;;4994184;28;20231;-91
2022/11/23 06:32:54;;;;;;;7.20;6.22;;;3.50;99.90;;;;;;4994121;28;20227;-91
2022/11/23 06:35:33;;;;;;;6.68;6.07;;;3.40;99.90;;;;;;4997638;28;20280;-90
2022/11/23 06:38:16;;;;;;;7.53;5.80;;;3.30;99.90;;;;;;4995212;28;20235;-92
2022/11/23 06:40:53;;;;;;;6.28;5.35;;;3.30;99.90;;;;;;4994283;28;20223;-91
2022/11/23 06:43:22;;;;;;;6.57;5.70;;;3.30;99.90;;;;;;4993671;28;20314;-91
2022/11/23 06:46:01;;;;;;;6.18;5.65;;;3.30;99.90;;;;;;4993841;28;20235;-91
2022/11/23 06:48:37;;;;;;;15.35;5.70;;;3.30;99.90;;;;;;4993777;28;20208;-91
2022/11/23 06:51:18;;;;;;;6.50;5.90;;;3.30;99.90;;;;;;4994092;28;20291;-90
2022/11/23 06:54:11;;;;;;;6.90;6.20;;;3.30;99.90;;;;;;4994313;28;20239;-90
2022/11/23 06:56:45;;;;;;;6.70;6.05;;;3.40;99.90;;;;;;4993544;28;20230;-91
2022/11/23 06:59:27;;;;;;;7.97;6.35;;;3.40;99.90;;;;;;4993763;28;20211;-90
2022/11/23 07:02:13;;;;;;;8.27;7.47;;;3.50;99.90;;;;;;4993480;28;20228;-91
2022/11/23 07:05:05;;;;;;;7.72;6.32;;;3.60;99.90;;;;;;4994117;28;20203;-91
2022/11/23 07:07:45;;;;;;;7.35;6.65;;;3.60;99.90;;;;;;4993483;28;20207;-91
2022/11/23 07:10:25;;;;;;;6.90;6.30;;;3.70;99.90;;;;;;4993289;28;20228;-91
2022/11/23 07:12:54;;;;;;;7.28;6.47;;;3.80;99.90;;;;;;4993131;28;20224;-90
2022/11/23 07:15:22;;;;;;;10.30;7.32;;;3.80;99.90;;;;;;4993440;28;20212;-90
2022/11/23 07:17:56;;;;;;;6.90;6.25;;;3.80;99.90;;;;;;4993709;28;20204;-91
2022/11/23 07:20:38;;;;;;;9.73;6.82;;;3.90;99.90;;;;;;4993826;28;20223;-91
2022/11/23 07:23:15;;;;;;;6.72;6.10;;;3.80;99.90;;;;;;4993058;28;20274;-90
2022/11/23 07:25:54;;;;;;;5.80;5.30;;;3.90;99.90;;;;;;4993392;28;20219;-90
2022/11/23 07:28:45;;;;;;;6.53;5.63;;;3.80;99.90;;;;;;4993269;28;20216;-91
2022/11/23 07:31:23;;;;;;;5.97;5.47;;;3.80;99.90;;;;;;4993335;28;20231;-92
2022/11/23 07:34:03;;;;;;;6.05;5.43;;;3.80;99.90;;;;;;4993380;28;20294;-91
2022/11/23 07:36:44;;;;;;;5.13;4.72;;;3.70;99.90;;;;;;4993250;28;20435;-92
2022/11/23 07:39:17;;;;;;;4.18;3.88;;;3.70;99.90;;;;;;4993061;28;20214;-91
2022/11/23 07:41:48;;;;;;;5.95;4.20;;;3.70;99.90;;;;;;4993051;28;20239;-92
2022/11/23 07:44:18;;;;;;;4.88;4.15;;;3.70;99.90;;;;;;4993102;28;20234;-92
2022/11/23 07:46:46;;;;;;;4.28;3.97;;;3.70;99.90;;;;;;4992993;28;20215;-91
2022/11/23 07:49:20;;;;;;;5.25;4.40;;;3.70;99.90;;;;;;4992555;28;20204;-92
2022/11/23 07:51:57;;;;;;;5.97;5.15;;;3.80;99.90;;;;;;4992484;28;20234;-92
2022/11/23 07:54:29;;;;;;;4.03;3.72;;;3.80;99.90;;;;;;4994572;28;20208;-91
2022/11/23 07:57:12;;;;;;;4.40;4.10;;;3.90;99.90;;;;;;4993867;28;20317;-91
2022/11/23 07:59:47;;;;;;;4.68;4.28;;;3.90;99.90;;;;;;4993783;28;20237;-92
2022/11/23 08:02:22;;;;;;;4.35;3.97;;;3.90;99.90;;;;;;4992336;28;20231;-92
2022/11/23 08:05:03;;;;;;;5.40;4.90;;;3.90;99.90;;;;;;4992936;28;20207;-91
2022/11/23 08:07:41;;;;;;;5.30;4.85;;;4.00;99.90;;;;;;4992769;28;20254;-92
2022/11/23 08:10:19;;;;;;;6.88;4.47;;;4.00;99.90;;;;;;4992975;28;20208;-90
2022/11/23 08:13:00;;;;;;;4.85;4.38;;;4.10;99.90;;;;;;4992902;28;20287;-90
2022/11/23 08:15:29;;;;;;;5.68;5.18;;;4.10;99.90;;;;;;4992763;28;20253;-90
2022/11/23 08:17:58;;;;;;;5.97;5.38;;;4.10;99.90;;;;;;4992580;28;20203;-90
2022/11/23 08:20:28;;;;;;;4.90;4.40;;;4.10;99.90;;;;;;4992740;28;20207;-90
2022/11/23 08:22:57;;;;;;;6.55;5.55;;;4.20;99.90;;;;;;4997008;28;20443;-90
2022/11/23 08:25:27;;;;;;;5.10;4.60;;;4.20;99.90;;;;;;4999582;28;20218;-89
2022/11/23 08:27:58;;;;;;;6.03;5.30;;;4.20;99.90;;;;;;5000131;28;20226;-91
2022/11/23 08:30:28;;;;;;;7.05;5.07;;;4.20;99.90;;;;;;4999379;28;20242;-90
2022/11/23 08:32:56;;;;;;;6.68;5.35;;;4.30;99.90;;;;;;4999502;28;20230;-91
2022/11/23 08:35:32;;;;;;;5.68;5.10;;;4.30;99.90;;;;;;4999791;28;20219;-90
2022/11/23 08:38:02;;;;;;;4.68;4.28;;;4.40;99.90;;;;;;4999699;28;20227;-91
2022/11/23 08:40:31;;;;;;;5.03;4.63;;;4.40;99.90;;;;;;4999692;28;20214;-91
2022/11/23 08:43:01;;;;;;;4.63;4.22;;;4.40;99.90;;;;;;4998971;28;20223;-91
2022/11/23 08:45:29;;;;;;;5.20;4.70;;;4.40;99.90;;;;;;4999307;28;20203;-90
2022/11/23 08:48:00;;;;;;;5.57;4.47;;;4.50;99.90;;;;;;4999153;28;20219;-90
2022/11/23 08:50:38;;;;;;;4.47;4.10;;;4.50;99.90;;;;;;4999788;28;20299;-90
2022/11/23 08:53:09;;;;;;;4.25;3.92;;;4.60;99.90;;;;;;4999385;28;20231;-90
2022/11/23 08:55:38;;;;;;;4.82;4.43;;;4.60;99.90;;;;;;5001392;28;20214;-90
2022/11/23 08:58:07;;;;;;;4.55;4.15;;;4.60;99.90;;;;;;5001245;28;20267;-91
2022/11/23 09:00:40;;;;;;;4.72;4.30;;;4.70;99.90;;;;;;4999395;28;20294;-90
2022/11/23 09:03:08;;;;;;;5.55;4.78;;;4.70;99.90;;;;;;4999422;28;20314;-92
2022/11/23 09:05:38;;;;;;;3.95;3.65;;;4.70;99.90;;;;;;4999259;28;20209;-90
2022/11/23 09:08:07;;;;;;;9.27;5.85;;;4.70;99.90;;;;;;4998824;28;20269;-90
2022/11/23 09:10:36;;;;;;;5.25;4.75;;;4.70;99.90;;;;;;4999085;28;20218;-90
2022/11/23 09:13:05;;;;;;;5.25;4.75;;;4.70;99.90;;;;;;4998940;28;20242;-91
2022/11/23 09:15:35;;;;;;;4.65;4.25;;;4.60;99.90;;;;;;5001825;28;20207;-91
2022/11/23 09:18:03;;;;;;;4.47;4.07;;;4.60;99.90;;;;;;4999569;28;20215;-93
2022/11/23 09:20:32;;;;;;;5.18;4.68;;;4.70;99.90;;;;;;4999134;28;20219;-90
2022/11/23 09:23:00;;;;;;;5.88;5.30;;;4.70;99.90;;;;;;4999703;28;20223;-90
2022/11/23 09:25:28;;;;;;;5.22;4.72;;;4.60;99.90;;;;;;4999102;28;20208;-91
2022/11/23 09:27:58;;;;;;;4.88;4.47;;;4.60;99.90;;;;;;4999320;28;20211;-90
2022/11/23 09:30:27;;;;;;;4.97;4.57;;;4.50;99.90;;;;;;4998622;28;20212;-90
2022/11/23 09:32:57;;;;;;;5.07;4.57;;;4.60;99.90;;;;;;4998710;28;20242;-91
2022/11/23 09:35:26;;;;;;;4.97;4.50;;;4.60;99.90;;;;;;4995602;28;20210;-90
2022/11/23 09:37:57;;;;;;;5.53;5.00;;;4.60;99.90;;;;;;4995779;28;20222;-90
2022/11/23 09:40:30;;;;;;;5.25;4.78;;;4.60;99.90;;;;;;4996034;28;20298;-90
2022/11/23 09:43:15;;;;;;;4.72;4.32;;;4.60;99.90;;;;;;4995849;28;20235;-90
2022/11/23 09:45:49;;;;;;;7.25;5.70;;;4.60;99.90;;;;;;4995847;28;20215;-90
2022/11/23 09:48:42;;;;;;;6.63;5.07;;;4.70;99.90;;;;;;4995230;28;20222;-89
2022/11/23 09:51:15;;;;;;;8.48;6.30;;;4.70;99.90;;;;;;4995353;28;20208;-92
2022/11/23 09:53:48;;;;;;;5.82;5.22;;;4.80;99.90;;;;;;4995551;28;20232;-91
2022/11/23 09:56:19;;;;;;;5.72;5.28;;;4.80;99.90;;;;;;4995677;28;20203;-90
2022/11/23 09:58:51;;;;;;;6.03;5.40;;;4.90;99.90;;;;;;4995189;28;20204;-90
2022/11/23 10:01:20;;;;;;;6.57;5.45;;;4.90;99.90;;;;;;4995470;28;20214;-90
2022/11/23 10:03:51;;;;;;;5.68;5.18;;;4.90;99.90;;;;;;4995796;28;20295;-90
2022/11/23 10:06:21;;;;;;;5.93;5.22;;;4.90;99.90;;;;;;4995614;28;20207;-90
2022/11/23 10:09:02;;;;;;;14.43;11.65;;;5.00;99.90;;;;;;4995463;28;20302;-91
2022/11/23 10:11:49;;;;;;;6.68;5.03;;;5.10;99.90;;;;;;4995348;28;20199;-90
2022/11/23 10:14:33;;;;;;;7.25;6.60;;;5.10;99.90;;;;;;4995556;28;20208;-89
2022/11/23 10:17:14;;;;;;;4.78;4.22;;;5.10;99.90;;;;;;4995455;28;20223;-90
2022/11/23 10:20:00;;;;;;;5.50;5.00;;;5.20;99.90;;;;;;4995490;28;20248;-89
2022/11/23 10:22:36;;;;;;;4.25;3.88;;;5.30;99.90;;;;;;4995370;28;20234;-90
2022/11/23 10:25:14;;;;;;;8.40;4.00;;;5.30;99.90;;;;;;4995274;28;20214;-90
2022/11/23 10:27:45;;;;;;;5.03;4.53;;;5.30;99.90;;;;;;4994792;28;20214;-90
2022/11/23 10:30:15;;;;;;;5.30;4.80;;;5.40;99.90;;;;;;4994718;28;20215;-90
2022/11/23 10:32:49;;;;;;;4.20;3.80;;;5.50;99.90;;;;;;4995248;28;20232;-91
2022/11/23 10:35:29;;;;;;;5.22;4.72;;;5.50;99.90;;;;;;4996755;28;20213;-90
2022/11/23 10:38:14;;;;;;;4.22;3.47;;;5.60;99.90;;;;;;4995306;28;20204;-90
2022/11/23 10:41:01;;;;;;;3.83;3.53;;;5.60;99.90;;;;;;4995116;28;20207;-90
2022/11/23 10:43:34;;;;;;;3.83;3.50;;;5.60;99.90;;;;;;4994633;28;20226;-89
2022/11/23 10:46:29;;;;;;;3.38;3.10;;;5.70;99.90;;;;;;4993973;28;20273;-89
2022/11/23 10:49:13;;;;;;;3.83;3.45;;;5.70;99.90;;;;;;4994321;28;20326;-89
2022/11/23 10:51:50;;;;;;;3.22;2.92;;;5.70;99.90;;;;;;4994435;28;20208;-90
2022/11/23 10:54:22;;;;;;;3.45;3.15;;;5.70;99.90;;;;;;4994515;28;20298;-90
2022/11/23 10:56:52;;;;;;;3.97;3.05;;;5.70;99.90;;;;;;4994450;28;20203;-90
2022/11/23 10:59:35;;;;;;;7.65;3.25;;;5.70;99.90;;;;;;4994556;28;20223;-92
2022/11/23 11:02:15;;;;;;;3.47;3.17;;;5.80;99.90;;;;;;4994401;28;20295;-92
2022/11/23 11:04:44;;;;;;;4.13;3.05;;;5.80;99.90;;;;;;4994242;28;20298;-89
2022/11/23 11:07:23;;;;;;;3.70;3.40;;;5.80;99.90;;;;;;4994146;28;20200;-90
2022/11/23 11:09:55;;;;;;;2.83;2.63;;;5.80;99.90;;;;;;4994210;28;20266;-88
2022/11/23 11:12:28;;;;;;;3.13;2.92;;;5.70;99.90;;;;;;4994329;28;20234;-88
2022/11/23 11:15:13;;;;;;;2.92;2.72;;;5.70;99.90;;;;;;4994095;28;20207;-88
2022/11/23 11:17:41;;;;;;;4.88;4.20;;;5.70;99.90;;;;;;4994175;28;20203;-88
2022/11/23 11:20:44;;;;;;;3.40;3.13;;;5.70;99.90;;;;;;4994073;28;20218;-88
2022/11/23 11:23:20;;;;;;;4.82;3.60;;;5.70;99.90;;;;;;4972464;28;20242;-89
2022/11/23 11:25:51;;;;;;;6.65;3.78;;;5.70;99.90;;;;;;4991241;28;20211;-89
2022/11/23 11:28:24;;;;;;;3.67;3.33;;;5.60;99.90;;;;;;4993539;28;20223;-88
2022/11/23 11:31:01;;;;;;;4.40;3.33;;;5.60;99.90;;;;;;4993584;28;20231;-90
2022/11/23 11:33:36;;;;;;;3.70;3.35;;;5.50;99.90;;;;;;4993392;28;20234;-88
2022/11/23 11:36:08;;;;;;;3.45;3.15;;;5.50;99.90;;;;;;4993996;28;20210;-91
2022/11/23 11:38:40;;;;;;;2.58;2.38;;;5.40;99.90;;;;;;4993710;28;20204;-89
2022/11/23 11:41:10;;;;;;;3.10;2.90;;;5.40;99.90;;;;;;4993629;28;20214;-89
2022/11/23 11:43:43;;;;;;;2.83;2.63;;;5.40;99.90;;;;;;4993475;28;20220;-90
2022/11/23 11:46:15;;;;;;;3.33;3.03;;;5.40;99.90;;;;;;4993551;28;20207;-89
2022/11/23 11:49:06;;;;;;;3.05;2.85;;;5.40;99.90;;;;;;4993169;28;20235;-91
2022/11/23 11:51:40;;;;;;;3.20;2.95;;;5.50;99.90;;;;;;4993762;28;20238;-89
2022/11/23 11:54:20;;;;;;;3.13;2.92;;;5.50;99.90;;;;;;4993713;28;20318;-89
2022/11/23 11:56:51;;;;;;;3.05;2.78;;;5.40;99.90;;;;;;4993094;28;20203;-89
2022/11/23 11:59:27;;;;;;;2.78;2.58;;;5.50;99.90;;;;;;4993751;28;20343;-89
2022/11/23 12:02:03;;;;;;;4.55;3.30;;;5.50;99.90;;;;;;4993593;28;20215;-92
2022/11/23 12:04:41;;;;;;;2.83;2.55;;;5.50;99.90;;;;;;4993548;28;20210;-93
2022/11/23 12:07:16;;;;;;;2.63;2.42;;;5.60;99.90;;;;;;4993430;28;20246;-92
2022/11/23 12:09:51;;;;;;;3.58;2.88;;;5.60;99.90;;;;;;4993229;28;20221;-92
2022/11/23 12:12:21;;;;;;;2.90;2.70;;;5.70;99.90;;;;;;4993451;28;20233;-92
2022/11/23 12:14:57;;;;;;;4.90;3.15;;;5.60;99.90;;;;;;4993444;28;20213;-92
2022/11/23 12:17:47;;;;;;;5.35;2.95;;;5.60;99.90;;;;;;4993195;28;20261;-92
2022/11/23 12:20:24;;;;;;;4.90;2.97;;;5.50;99.90;;;;;;4993516;28;20214;-92
2022/11/23 12:23:09;;;;;;;2.80;2.60;;;5.50;99.90;;;;;;4992701;28;20258;-91
2022/11/23 12:25:44;;;;;;;3.42;3.13;;;5.50;99.90;;;;;;4993186;28;20222;-92
2022/11/23 12:28:27;;;;;;;11.27;3.88;;;5.50;99.90;;;;;;4992999;28;20203;-92
2022/11/23 12:31:06;;;;;;;3.95;3.38;;;5.50;99.90;;;;;;4993051;28;20207;-92
2022/11/23 12:33:52;;;;;;;2.90;2.70;;;5.50;99.90;;;;;;4993148;28;20230;-92
2022/11/23 12:36:42;;;;;;;3.42;3.13;;;5.50;99.90;;;;;;4992950;28;20219;-92
2022/11/23 12:39:25;;;;;;;3.28;2.95;;;5.50;99.90;;;;;;4993296;28;20207;-92
2022/11/23 12:42:03;;;;;;;2.80;2.60;;;5.50;99.90;;;;;;4992808;28;20215;-92
2022/11/23 12:44:49;;;;;;;3.40;3.10;;;5.50;99.90;;;;;;4993427;28;20203;-92
2022/11/23 12:47:31;;;;;;;2.97;2.78;;;5.50;99.90;;;;;;4992794;28;20215;-93
2022/11/23 12:50:09;;;;;;;6.07;4.75;;;5.50;99.90;;;;;;4992713;28;20212;-93
2022/11/23 12:52:50;;;;;;;23.50;12.13;;;5.50;99.90;;;;;;4992736;28;20228;-92
2022/11/23 12:55:24;;;;;;;11.57;6.55;;;5.50;99.90;;;;;;4992967;28;20298;-93
2022/11/23 12:58:00;;;;;;;7.70;5.55;;;5.60;99.90;;;;;;4992960;28;20208;-93
2022/11/23 13:00:34;;;;;;;4.85;4.07;;;5.60;99.90;;;;;;4992868;28;20214;-89
2022/11/23 13:03:41;;;;;;;4.55;3.78;;;5.60;99.90;;;;;;4992610;28;20286;-88
2022/11/23 13:06:37;;;;;;;2.80;2.28;;;5.60;99.90;;;;;;4992760;28;20218;-92
2022/11/23 13:09:30;;;;;;;4.05;3.72;;;5.50;99.90;;;;;;4993384;28;20211;-93
2022/11/23 13:12:15;;;;;;;6.82;5.65;;;5.50;99.90;;;;;;4997327;28;20215;-92
2022/11/23 13:14:56;;;;;;;8.48;5.72;;;5.50;99.90;;;;;;5000637;28;20230;-92
2022/11/23 13:17:32;;;;;;;9.18;6.93;;;5.50;99.90;;;;;;4998466;28;20230;-94
2022/11/23 13:20:23;;;;;;;6.20;5.30;;;5.50;99.90;;;;;;4997789;28;20211;-92
2022/11/23 13:22:52;;;;;;;5.90;4.88;;;5.50;99.90;;;;;;4996544;28;20230;-93
2022/11/23 13:25:25;;;;;;;7.22;5.82;;;5.60;99.90;;;;;;4997025;28;20218;-93
2022/11/23 13:28:04;;;;;;;8.15;5.47;;;5.60;99.90;;;;;;4996465;28;20207;-93
2022/11/23 13:30:36;;;;;;;11.02;5.68;;;5.50;99.90;;;;;;4996144;28;20208;-92
2022/11/23 13:33:27;;;;;;;8.15;4.93;;;5.50;99.90;;;;;;4996303;28;20232;-93
2022/11/23 13:36:01;;;;;;;4.22;3.17;;;5.50;99.90;;;;;;4996306;28;20295;-93
2022/11/23 13:38:43;;;;;;;3.13;2.90;;;5.50;99.90;;;;;;4996416;28;20291;-93
2022/11/23 13:41:54;;;;;;;2.38;2.28;;;5.50;99.90;;;;;;4996199;28;20203;-93